Time;durP1;ratioP1;P1;durP2;ratioP2;P2;SDS_P1;SDS_P2;PMS_P1;PMS_P2;Temp;Humidity;BMP_temperature;BMP_pressure;BME280_temperature;BME280_humidity;BME280_pressure;Samples;Min_cycle;Max_cycle;Signal;HPM_P1;HPM_P2
2021/10/11 00:00:30;;;;;;;7.25;5.60;;;13.50;69.90;;;;;;5028179;28;20040;-84
2021/10/11 00:02:56;;;;;;;8.50;6.50;;;13.50;69.90;;;;;;5028380;28;20034;-85
2021/10/11 00:05:22;;;;;;;6.68;6.22;;;13.50;69.90;;;;;;5023892;28;20025;-85
2021/10/11 00:07:48;;;;;;;19.60;6.60;;;13.50;70.00;;;;;;5026346;28;20404;-85
2021/10/11 00:10:19;;;;;;;6.63;6.05;;;13.50;70.00;;;;;;5013113;28;20053;-84
2021/10/11 00:12:49;;;;;;;7.85;7.15;;;13.40;70.10;;;;;;5013642;28;20101;-85
2021/10/11 00:15:16;;;;;;;6.47;6.00;;;13.40;70.20;;;;;;5018256;28;20034;-84
2021/10/11 00:17:43;;;;;;;6.15;5.57;;;13.40;70.20;;;;;;5019324;28;20035;-84
2021/10/11 00:20:09;;;;;;;7.30;6.75;;;13.40;70.20;;;;;;5016302;28;20067;-84
2021/10/11 00:22:35;;;;;;;6.72;6.13;;;13.40;70.20;;;;;;5018299;28;20037;-84
2021/10/11 00:25:04;;;;;;;5.57;5.10;;;13.40;70.30;;;;;;4995945;28;20053;-84
2021/10/11 00:27:34;;;;;;;5.38;5.07;;;13.40;70.40;;;;;;5023423;28;20025;-85
2021/10/11 00:30:00;;;;;;;8.90;7.82;;;13.40;70.30;;;;;;5028197;28;20049;-84
2021/10/11 00:32:26;;;;;;;6.93;6.22;;;13.40;70.40;;;;;;5011136;28;20045;-85
2021/10/11 00:34:52;;;;;;;8.32;6.55;;;13.40;70.40;;;;;;5027316;28;20034;-84
2021/10/11 00:37:18;;;;;;;6.15;5.50;;;13.40;70.40;;;;;;5027878;28;20038;-85
2021/10/11 00:39:44;;;;;;;7.20;6.50;;;13.30;70.50;;;;;;5023093;28;20038;-84
2021/10/11 00:42:11;;;;;;;6.93;5.97;;;13.30;70.50;;;;;;5027914;28;20041;-85
2021/10/11 00:44:37;;;;;;;7.63;6.38;;;13.30;70.50;;;;;;5022018;28;20034;-84
2021/10/11 00:47:03;;;;;;;5.25;4.95;;;13.30;70.50;;;;;;5030411;28;20038;-85
2021/10/11 00:49:29;;;;;;;5.97;5.55;;;13.30;70.60;;;;;;5034036;28;20044;-85
2021/10/11 00:51:56;;;;;;;9.02;6.03;;;13.30;70.60;;;;;;5019133;28;20409;-84
2021/10/11 00:54:25;;;;;;;8.93;6.63;;;13.20;70.60;;;;;;5019595;28;20037;-85
2021/10/11 00:56:51;;;;;;;7.38;4.90;;;13.20;70.60;;;;;;5016534;28;20048;-84
2021/10/11 00:59:17;;;;;;;5.65;5.25;;;13.30;70.70;;;;;;5032444;28;20037;-85
2021/10/11 01:01:43;;;;;;;9.00;4.97;;;13.20;70.60;;;;;;5030894;28;20053;-84
2021/10/11 01:04:09;;;;;;;6.32;5.78;;;13.20;70.60;;;;;;5031530;28;20056;-85
2021/10/11 01:06:38;;;;;;;5.63;5.25;;;13.20;70.80;;;;;;5001572;28;20041;-84
2021/10/11 01:09:05;;;;;;;5.95;5.50;;;13.20;70.80;;;;;;5032187;28;20503;-85
2021/10/11 01:11:31;;;;;;;6.57;5.35;;;13.10;70.90;;;;;;5012607;28;20037;-85
2021/10/11 01:13:57;;;;;;;6.45;5.57;;;13.10;70.90;;;;;;5029486;28;20041;-85
2021/10/11 01:16:23;;;;;;;5.78;5.45;;;13.10;71.00;;;;;;5023552;28;20049;-84
2021/10/11 01:18:49;;;;;;;6.93;5.95;;;13.10;71.10;;;;;;5032227;28;20064;-85
2021/10/11 01:21:15;;;;;;;5.78;5.28;;;13.00;71.10;;;;;;5032804;28;20037;-85
2021/10/11 01:23:42;;;;;;;11.40;6.38;;;13.00;71.10;;;;;;5015252;28;20049;-84
2021/10/11 01:26:08;;;;;;;5.82;5.43;;;13.00;71.10;;;;;;5033021;28;20025;-84
2021/10/11 01:28:34;;;;;;;22.15;6.13;;;13.00;71.10;;;;;;5033777;28;20036;-85
2021/10/11 01:31:00;;;;;;;5.43;4.78;;;13.00;71.10;;;;;;4997351;28;20049;-84
2021/10/11 01:33:26;;;;;;;6.45;5.82;;;13.00;71.20;;;;;;5030339;28;20034;-85
2021/10/11 01:35:52;;;;;;;5.55;5.07;;;13.00;71.20;;;;;;5004305;28;20496;-84
2021/10/11 01:38:18;;;;;;;6.10;5.50;;;13.00;71.20;;;;;;5032897;28;20037;-84
2021/10/11 01:40:44;;;;;;;6.22;5.72;;;13.00;71.20;;;;;;5032269;28;20392;-84
2021/10/11 01:43:10;;;;;;;5.45;5.05;;;12.90;71.20;;;;;;5030872;28;20026;-84
2021/10/11 01:45:36;;;;;;;5.68;5.28;;;13.00;71.30;;;;;;5030411;28;20037;-84
2021/10/11 01:48:03;;;;;;;23.02;5.57;;;12.90;71.30;;;;;;5031044;28;20036;-85
2021/10/11 01:50:30;;;;;;;5.13;4.78;;;12.90;71.40;;;;;;5014813;28;20049;-84
2021/10/11 01:52:56;;;;;;;5.43;5.03;;;12.90;71.40;;;;;;5014807;28;20030;-84
2021/10/11 01:55:22;;;;;;;6.03;4.88;;;12.90;71.40;;;;;;5030814;28;20064;-84
2021/10/11 01:57:48;;;;;;;9.13;5.07;;;12.90;71.50;;;;;;5031910;28;20033;-84
2021/10/11 02:00:14;;;;;;;7.93;5.70;;;12.90;71.40;;;;;;4998132;28;20087;-84
2021/10/11 02:02:40;;;;;;;5.70;5.38;;;12.80;71.40;;;;;;5027139;28;20053;-84
2021/10/11 02:05:07;;;;;;;5.80;5.30;;;12.80;71.40;;;;;;5023203;28;20022;-84
2021/10/11 02:07:33;;;;;;;6.97;6.25;;;12.80;71.50;;;;;;5020600;28;20049;-84
2021/10/11 02:09:59;;;;;;;5.38;4.53;;;12.80;71.50;;;;;;5012941;28;20033;-84
2021/10/11 02:12:25;;;;;;;6.57;5.95;;;12.80;71.50;;;;;;5014250;28;20068;-84
2021/10/11 02:14:51;;;;;;;6.13;5.63;;;12.80;71.50;;;;;;5008628;28;20052;-84
2021/10/11 02:17:18;;;;;;;6.68;6.20;;;12.80;71.60;;;;;;5011247;28;20033;-84
2021/10/11 02:19:44;;;;;;;11.35;5.95;;;12.80;71.60;;;;;;5023282;28;20037;-84
2021/10/11 02:22:10;;;;;;;4.75;4.55;;;12.80;71.50;;;;;;5045387;28;20040;-84
2021/10/11 02:24:37;;;;;;;5.88;5.40;;;12.80;71.50;;;;;;5012814;28;20389;-84
2021/10/11 02:27:03;;;;;;;5.65;5.15;;;12.80;71.60;;;;;;5009746;28;20041;-84
2021/10/11 02:29:29;;;;;;;5.70;5.30;;;12.80;71.60;;;;;;5025906;28;20033;-84
2021/10/11 02:31:56;;;;;;;5.50;5.00;;;12.80;72.50;;;;;;5027770;28;20052;-84
2021/10/11 02:34:22;;;;;;;6.15;5.68;;;12.80;71.80;;;;;;5008432;28;20032;-84
2021/10/11 02:36:48;;;;;;;6.53;5.95;;;12.80;71.70;;;;;;5030072;28;20395;-84
2021/10/11 02:39:14;;;;;;;6.32;5.07;;;12.80;71.80;;;;;;5032209;28;20044;-85
2021/10/11 02:41:40;;;;;;;5.10;4.80;;;12.80;71.80;;;;;;5030418;28;20037;-84
2021/10/11 02:44:07;;;;;;;4.90;4.50;;;12.70;71.70;;;;;;5013740;28;20029;-85
2021/10/11 02:46:33;;;;;;;6.10;4.93;;;12.70;71.80;;;;;;5018832;28;20044;-84
2021/10/11 02:48:59;;;;;;;5.43;5.03;;;12.70;71.80;;;;;;5030991;28;20033;-84
2021/10/11 02:51:25;;;;;;;8.85;5.05;;;12.70;71.90;;;;;;5030268;28;20484;-85
2021/10/11 02:53:52;;;;;;;5.07;4.68;;;12.70;71.90;;;;;;5029811;28;20048;-84
2021/10/11 02:56:18;;;;;;;4.97;4.65;;;12.70;71.90;;;;;;5011242;28;20033;-85
2021/10/11 02:58:47;;;;;;;5.95;5.38;;;12.70;72.00;;;;;;5011654;28;20033;-83
2021/10/11 03:01:14;;;;;;;6.07;5.35;;;12.60;72.00;;;;;;5039657;28;20542;-81
2021/10/11 03:03:40;;;;;;;5.57;5.18;;;12.60;71.90;;;;;;5015261;28;20040;-83
2021/10/11 03:06:06;;;;;;;5.93;5.05;;;12.70;72.00;;;;;;5028119;28;20038;-83
2021/10/11 03:08:33;;;;;;;4.90;4.50;;;12.60;72.00;;;;;;5026548;28;20026;-84
2021/10/11 03:10:59;;;;;;;7.20;4.57;;;12.60;72.00;;;;;;5030602;28;20153;-83
2021/10/11 03:13:26;;;;;;;5.20;4.85;;;12.60;72.00;;;;;;5030892;28;20036;-84
2021/10/11 03:15:52;;;;;;;8.43;5.28;;;12.60;72.00;;;;;;5031293;28;20049;-83
2021/10/11 03:18:18;;;;;;;6.40;5.28;;;12.60;72.10;;;;;;5031314;28;20033;-84
2021/10/11 03:20:44;;;;;;;5.32;4.93;;;12.50;72.00;;;;;;5030451;28;20030;-84
2021/10/11 03:23:10;;;;;;;4.95;4.63;;;12.50;72.00;;;;;;5014561;28;20041;-84
2021/10/11 03:25:36;;;;;;;6.90;5.68;;;12.50;72.10;;;;;;5031832;28;20036;-84
2021/10/11 03:28:03;;;;;;;6.22;5.03;;;12.50;72.10;;;;;;5030899;28;20045;-84
2021/10/11 03:30:29;;;;;;;11.68;6.13;;;12.50;72.10;;;;;;5030293;28;20030;-84
2021/10/11 03:32:55;;;;;;;5.82;5.05;;;12.40;72.10;;;;;;5014442;28;20511;-85
2021/10/11 03:35:21;;;;;;;4.75;4.43;;;12.40;72.20;;;;;;5012261;28;20025;-84
2021/10/11 03:37:47;;;;;;;5.32;4.82;;;12.40;72.30;;;;;;5031835;28;20455;-84
2021/10/11 03:40:13;;;;;;;6.40;4.85;;;12.30;72.30;;;;;;5031448;28;20037;-84
2021/10/11 03:42:39;;;;;;;8.15;5.95;;;12.30;72.30;;;;;;5030834;28;20412;-84
2021/10/11 03:45:06;;;;;;;9.43;5.28;;;12.30;72.30;;;;;;5029094;28;20045;-84
2021/10/11 03:47:32;;;;;;;5.25;4.65;;;12.30;72.40;;;;;;5030634;28;20033;-85
2021/10/11 03:49:58;;;;;;;6.45;4.80;;;12.20;72.30;;;;;;5030612;28;20037;-84
2021/10/11 03:52:24;;;;;;;5.13;4.75;;;12.30;72.40;;;;;;5013760;28;20052;-84
2021/10/11 03:54:51;;;;;;;22.17;5.43;;;12.30;72.40;;;;;;5031716;28;20029;-84
2021/10/11 03:57:17;;;;;;;4.45;4.20;;;12.20;72.30;;;;;;5030044;28;20044;-84
2021/10/11 03:59:43;;;;;;;5.68;5.05;;;12.30;72.40;;;;;;5026711;28;20030;-84
2021/10/11 04:02:09;;;;;;;4.70;4.50;;;12.30;72.40;;;;;;5013250;28;20425;-84
2021/10/11 04:04:36;;;;;;;5.45;4.55;;;12.20;72.30;;;;;;5029593;28;20468;-84
2021/10/11 04:07:07;;;;;;;4.97;4.68;;;12.20;72.40;;;;;;5030418;28;20040;-84
2021/10/11 04:09:34;;;;;;;4.32;4.13;;;12.20;72.40;;;;;;5031562;28;20029;-84
2021/10/11 04:12:06;;;;;;;6.50;4.60;;;12.10;72.40;;;;;;5030050;28;20045;-84
2021/10/11 04:14:33;;;;;;;6.20;5.80;;;12.10;72.40;;;;;;5030988;28;20021;-84
2021/10/11 04:16:59;;;;;;;6.28;5.55;;;12.10;72.40;;;;;;5013548;28;20037;-84
2021/10/11 04:19:25;;;;;;;6.30;5.47;;;12.10;72.50;;;;;;5032363;28;20026;-84
2021/10/11 04:21:51;;;;;;;7.03;6.18;;;12.10;72.50;;;;;;5017140;28;20033;-83
2021/10/11 04:24:18;;;;;;;5.35;4.85;;;12.10;72.50;;;;;;5034346;28;20034;-84
2021/10/11 04:26:44;;;;;;;4.78;4.45;;;12.00;72.50;;;;;;5035161;28;20391;-84
2021/10/11 04:29:10;;;;;;;6.35;5.60;;;12.00;72.60;;;;;;5033644;28;20033;-84
2021/10/11 04:31:36;;;;;;;7.53;4.18;;;12.00;72.70;;;;;;5034109;28;20030;-84
2021/10/11 04:34:02;;;;;;;10.60;5.55;;;12.00;72.70;;;;;;5032801;28;20487;-83
2021/10/11 04:36:28;;;;;;;8.82;5.85;;;11.90;72.80;;;;;;5034513;28;20033;-84
2021/10/11 04:38:54;;;;;;;6.07;5.57;;;11.90;72.80;;;;;;5033791;28;20392;-84
2021/10/11 04:41:20;;;;;;;7.38;5.30;;;11.90;72.80;;;;;;5033262;28;20033;-84
2021/10/11 04:43:46;;;;;;;5.15;4.75;;;11.90;72.80;;;;;;5033346;28;20388;-84
2021/10/11 04:46:12;;;;;;;5.20;4.78;;;11.90;72.90;;;;;;5033996;28;20036;-84
2021/10/11 04:48:38;;;;;;;5.68;5.25;;;11.90;72.80;;;;;;5026797;28;20385;-87
2021/10/11 04:51:05;;;;;;;5.72;5.32;;;11.90;72.90;;;;;;5033356;28;20041;-83
2021/10/11 04:53:31;;;;;;;5.25;4.85;;;11.90;72.90;;;;;;5031892;28;20030;-85
2021/10/11 04:55:57;;;;;;;6.00;5.40;;;11.80;72.90;;;;;;5034355;28;20034;-85
2021/10/11 04:58:24;;;;;;;5.50;4.90;;;11.80;72.90;;;;;;5032733;28;20414;-85
2021/10/11 05:00:50;;;;;;;5.82;5.43;;;11.80;73.00;;;;;;5033911;28;20052;-85
2021/10/11 05:03:17;;;;;;;4.38;4.07;;;11.80;73.00;;;;;;5028742;28;20026;-84
2021/10/11 05:05:43;;;;;;;4.53;4.22;;;11.80;73.00;;;;;;5029478;28;20045;-85
2021/10/11 05:08:09;;;;;;;7.10;5.40;;;11.80;73.00;;;;;;5031444;28;20033;-84
2021/10/11 05:10:35;;;;;;;4.40;4.18;;;11.90;73.10;;;;;;5033291;28;20029;-83
2021/10/11 05:13:01;;;;;;;9.93;4.75;;;11.90;73.10;;;;;;5033071;28;20044;-84
2021/10/11 05:15:27;;;;;;;6.95;5.18;;;11.90;73.10;;;;;;5023436;28;20040;-86
2021/10/11 05:17:53;;;;;;;5.07;4.75;;;11.90;73.00;;;;;;5066935;28;20034;-84
2021/10/11 05:20:19;;;;;;;4.95;4.38;;;11.90;73.70;;;;;;5025381;28;20045;-84
2021/10/11 05:22:45;;;;;;;5.78;4.63;;;11.90;73.00;;;;;;5033883;28;20442;-85
2021/10/11 05:25:12;;;;;;;6.13;5.28;;;11.90;73.00;;;;;;5032669;28;20029;-83
2021/10/11 05:27:38;;;;;;;4.93;4.53;;;12.00;73.10;;;;;;5026919;28;20042;-84
2021/10/11 05:30:04;;;;;;;5.32;4.82;;;11.90;73.10;;;;;;5014547;28;20041;-83
2021/10/11 05:32:32;;;;;;;4.88;4.57;;;11.90;73.10;;;;;;5014373;28;20053;-85
2021/10/11 05:34:58;;;;;;;6.72;4.88;;;11.90;73.10;;;;;;4997676;28;20128;-85
2021/10/11 05:37:25;;;;;;;18.73;5.43;;;11.90;73.20;;;;;;5032396;28;20419;-83
2021/10/11 05:39:51;;;;;;;5.90;4.45;;;11.90;73.20;;;;;;5015614;28;20037;-83
2021/10/11 05:42:17;;;;;;;4.40;3.85;;;11.90;73.20;;;;;;5032066;28;20071;-85
2021/10/11 05:44:43;;;;;;;7.05;5.50;;;11.90;73.20;;;;;;5030348;28;20038;-84
2021/10/11 05:47:10;;;;;;;4.93;4.50;;;11.90;73.20;;;;;;5027293;28;20048;-84
2021/10/11 05:49:37;;;;;;;4.07;3.78;;;11.80;73.20;;;;;;5033647;28;20030;-83
2021/10/11 05:52:04;;;;;;;7.10;4.70;;;11.80;73.20;;;;;;5032370;28;20049;-82
2021/10/11 05:54:30;;;;;;;4.07;3.88;;;11.80;73.20;;;;;;5033678;28;20423;-84
2021/10/11 05:56:56;;;;;;;5.38;4.97;;;11.80;73.20;;;;;;5028876;28;20037;-84
2021/10/11 05:59:22;;;;;;;4.50;4.25;;;11.80;73.20;;;;;;5026822;28;20033;-83
2021/10/11 06:01:48;;;;;;;5.60;5.10;;;11.80;73.30;;;;;;5028950;28;20045;-84
2021/10/11 06:04:15;;;;;;;5.13;4.63;;;11.80;73.30;;;;;;5032762;28;20029;-85
2021/10/11 06:06:41;;;;;;;6.65;4.18;;;11.80;73.30;;;;;;5014667;28;20571;-85
2021/10/11 06:09:07;;;;;;;3.60;3.40;;;11.80;73.30;;;;;;5027188;28;20030;-85
2021/10/11 06:11:33;;;;;;;5.03;4.63;;;11.90;73.30;;;;;;5007018;28;20061;-85
2021/10/11 06:13:59;;;;;;;3.90;3.65;;;11.80;73.30;;;;;;5031739;28;20040;-83
2021/10/11 06:16:25;;;;;;;3.40;3.20;;;11.90;73.30;;;;;;5025294;28;20399;-86
2021/10/11 06:18:51;;;;;;;6.78;5.30;;;11.90;73.30;;;;;;5025755;28;20040;-88
2021/10/11 06:21:18;;;;;;;4.50;4.15;;;11.90;74.00;;;;;;5031374;28;20037;-88
2021/10/11 06:23:46;;;;;;;6.60;4.88;;;12.00;73.30;;;;;;5013680;28;20049;-87
2021/10/11 06:26:12;;;;;;;4.28;3.97;;;12.00;73.20;;;;;;5036400;28;20044;-87
2021/10/11 06:28:38;;;;;;;5.80;5.03;;;12.00;73.10;;;;;;5050514;28;20480;-91
2021/10/11 06:31:05;;;;;;;4.93;4.43;;;12.00;73.10;;;;;;5052840;28;20383;-88
2021/10/11 06:33:31;;;;;;;5.80;4.80;;;12.10;73.10;;;;;;5031465;28;20443;-88
2021/10/11 06:35:57;;;;;;;5.45;4.57;;;12.10;73.00;;;;;;5000074;28;20427;-90
2021/10/11 06:38:23;;;;;;;4.35;3.88;;;12.20;73.10;;;;;;5030834;28;20029;-88
2021/10/11 06:40:51;;;;;;;9.40;4.97;;;12.20;73.00;;;;;;5030754;28;20048;-85
2021/10/11 06:43:18;;;;;;;6.13;5.00;;;12.20;73.00;;;;;;5063766;28;20049;-87
2021/10/11 06:45:44;;;;;;;5.68;5.13;;;12.30;73.10;;;;;;5064433;28;20048;-88
2021/10/11 06:48:10;;;;;;;4.85;4.55;;;12.30;73.00;;;;;;5031676;28;20041;-88
2021/10/11 06:50:36;;;;;;;9.65;5.60;;;12.30;73.00;;;;;;5064194;28;20029;-88
2021/10/11 06:53:03;;;;;;;5.18;4.55;;;12.30;73.10;;;;;;5045233;28;20506;-86
2021/10/11 06:55:29;;;;;;;4.95;4.60;;;12.40;73.10;;;;;;5064177;28;20025;-86
2021/10/11 06:57:55;;;;;;;4.47;4.20;;;12.40;73.10;;;;;;5064541;28;20480;-86
2021/10/11 07:00:21;;;;;;;5.53;5.13;;;12.40;73.00;;;;;;5030781;28;20053;-86
2021/10/11 07:02:47;;;;;;;14.80;5.60;;;12.50;73.00;;;;;;5046799;28;20396;-85
2021/10/11 07:05:15;;;;;;;7.95;5.43;;;12.50;72.90;;;;;;5032164;28;20029;-91
2021/10/11 07:07:42;;;;;;;4.72;4.40;;;12.60;72.90;;;;;;5041291;28;20040;-86
2021/10/11 07:10:08;;;;;;;4.70;4.40;;;12.60;72.90;;;;;;5030307;28;20117;-88
2021/10/11 07:12:35;;;;;;;5.80;5.30;;;12.70;72.90;;;;;;5033227;28;20380;-88
2021/10/11 07:15:01;;;;;;;9.73;5.30;;;12.70;72.80;;;;;;5031927;28;20037;-87
2021/10/11 07:17:27;;;;;;;5.10;4.55;;;12.70;72.80;;;;;;5043191;28;20050;-88
2021/10/11 07:19:53;;;;;;;5.32;4.90;;;12.80;72.80;;;;;;5029790;28;20052;-84
2021/10/11 07:22:19;;;;;;;4.80;4.45;;;12.80;72.70;;;;;;5045767;28;20392;-83
2021/10/11 07:24:46;;;;;;;5.38;5.03;;;12.80;72.80;;;;;;5031725;28;20513;-90
2021/10/11 07:27:12;;;;;;;6.13;5.53;;;12.90;72.80;;;;;;5032206;28;20045;-90
2021/10/11 07:29:39;;;;;;;6.47;5.88;;;12.90;72.80;;;;;;5030851;28;20037;-91
2021/10/11 07:32:05;;;;;;;5.43;5.03;;;12.90;72.80;;;;;;5031425;28;20049;-85
2021/10/11 07:34:32;;;;;;;7.78;5.80;;;13.00;72.90;;;;;;5035091;28;20033;-89
2021/10/11 07:36:58;;;;;;;5.00;4.50;;;13.00;72.90;;;;;;5022427;28;20378;-88
2021/10/11 07:39:24;;;;;;;8.05;5.03;;;13.00;72.80;;;;;;5015008;28;20033;-88
2021/10/11 07:41:50;;;;;;;5.50;5.00;;;13.10;72.80;;;;;;5014374;28;20046;-88
2021/10/11 07:44:17;;;;;;;6.28;5.43;;;13.20;72.80;;;;;;5030719;28;20032;-87
2021/10/11 07:46:43;;;;;;;7.82;6.10;;;13.20;72.60;;;;;;5029414;28;20034;-88
2021/10/11 07:49:09;;;;;;;8.98;5.45;;;13.20;72.70;;;;;;5014010;28;22184;-88
2021/10/11 07:51:36;;;;;;;6.05;5.57;;;13.30;72.80;;;;;;5031782;28;20056;-88
2021/10/11 07:54:02;;;;;;;5.72;5.40;;;13.20;72.90;;;;;;5018012;28;20033;-88
2021/10/11 07:56:28;;;;;;;11.43;6.88;;;13.20;73.00;;;;;;5035587;28;20036;-88
2021/10/11 07:58:55;;;;;;;6.00;5.50;;;13.20;73.00;;;;;;5037269;28;20040;-88
2021/10/11 08:01:21;;;;;;;6.15;5.63;;;13.30;73.00;;;;;;5036621;28;20037;-88
2021/10/11 08:03:47;;;;;;;7.15;5.68;;;13.30;73.00;;;;;;5038729;28;20030;-88
2021/10/11 08:06:13;;;;;;;4.72;4.45;;;13.30;72.90;;;;;;5036307;28;20037;-87
2021/10/11 08:08:39;;;;;;;4.97;4.57;;;13.40;72.90;;;;;;5036326;28;20037;-87
2021/10/11 08:11:05;;;;;;;6.55;5.88;;;13.50;73.70;;;;;;5020931;28;20037;-87
2021/10/11 08:13:31;;;;;;;8.13;6.15;;;13.50;72.70;;;;;;5038247;28;20037;-86
2021/10/11 08:15:57;;;;;;;6.47;5.97;;;13.50;72.70;;;;;;5020733;28;20026;-86
2021/10/11 08:18:24;;;;;;;6.07;5.57;;;13.50;72.80;;;;;;5053514;28;20025;-86
2021/10/11 08:20:50;;;;;;;7.88;6.70;;;13.40;72.90;;;;;;5033649;28;20040;-85
2021/10/11 08:23:16;;;;;;;7.72;5.60;;;13.40;73.10;;;;;;5033925;28;20437;-86
2021/10/11 08:25:42;;;;;;;10.10;6.75;;;13.50;73.20;;;;;;5029978;28;20033;-85
2021/10/11 08:28:08;;;;;;;6.40;5.90;;;13.60;72.90;;;;;;5037153;28;20038;-86
2021/10/11 08:30:34;;;;;;;6.30;5.80;;;13.80;72.70;;;;;;5034992;28;20052;-85
2021/10/11 08:33:00;;;;;;;7.05;6.45;;;14.00;72.50;;;;;;5037851;28;20048;-85
2021/10/11 08:35:27;;;;;;;6.15;5.60;;;14.10;72.20;;;;;;5036673;28;20033;-86
2021/10/11 08:37:53;;;;;;;9.40;7.03;;;14.30;72.10;;;;;;4993588;28;20060;-86
2021/10/11 08:40:20;;;;;;;6.72;6.22;;;14.40;72.00;;;;;;5029743;28;20487;-82
2021/10/11 08:42:47;;;;;;;6.80;6.20;;;14.60;71.80;;;;;;5003744;28;20046;-83
2021/10/11 08:45:14;;;;;;;7.78;6.57;;;14.80;71.40;;;;;;5036677;28;20029;-88
2021/10/11 08:47:40;;;;;;;5.47;5.13;;;15.00;71.00;;;;;;5019510;28;20041;-88
2021/10/11 08:50:11;;;;;;;5.95;5.55;;;15.20;70.80;;;;;;5002263;28;20412;-86
2021/10/11 08:52:38;;;;;;;12.82;6.05;;;15.40;70.50;;;;;;5004715;28;20064;-86
2021/10/11 08:55:05;;;;;;;5.45;5.13;;;15.50;70.30;;;;;;5003130;28;20048;-86
2021/10/11 08:57:32;;;;;;;6.07;5.53;;;15.70;70.10;;;;;;5034580;28;20044;-79
2021/10/11 09:00:16;;;;;;;6.97;5.95;;;15.70;70.00;;;;;;5037076;28;20049;-87
2021/10/11 09:02:53;;;;;;;6.78;6.28;;;15.80;70.10;;;;;;5040243;28;20038;-83
2021/10/11 09:05:52;;;;;;;6.70;5.63;;;15.80;70.20;;;;;;5050667;28;20029;-86
2021/10/11 09:08:19;;;;;;;7.57;5.93;;;15.80;70.30;;;;;;5023986;28;20033;-88
2021/10/11 09:10:52;;;;;;;5.97;5.43;;;15.80;70.40;;;;;;5016144;28;20048;-87
2021/10/11 09:13:26;;;;;;;5.95;5.60;;;15.90;70.50;;;;;;5039197;28;20045;-86
2021/10/11 09:16:12;;;;;;;6.05;5.65;;;15.90;70.60;;;;;;5017116;28;20033;-84
2021/10/11 09:18:43;;;;;;;6.22;5.82;;;16.00;70.70;;;;;;5049311;28;20041;-87
2021/10/11 09:21:10;;;;;;;10.38;6.93;;;16.00;70.70;;;;;;5033362;28;20499;-87
2021/10/11 09:23:36;;;;;;;7.47;6.05;;;16.00;70.70;;;;;;5032981;28;20041;-84
2021/10/11 09:26:17;;;;;;;7.72;6.95;;;16.00;70.70;;;;;;5032403;28;20032;-88
2021/10/11 09:28:51;;;;;;;6.47;5.93;;;16.00;70.80;;;;;;5017900;28;20025;-83
2021/10/11 09:31:17;;;;;;;7.13;6.57;;;15.90;70.90;;;;;;5034142;28;20032;-87
2021/10/11 09:33:43;;;;;;;6.38;5.93;;;15.90;71.00;;;;;;5016595;28;20048;-87
2021/10/11 09:36:09;;;;;;;5.57;5.28;;;15.90;71.10;;;;;;5034008;28;20025;-86
2021/10/11 09:38:35;;;;;;;6.97;6.38;;;15.90;71.10;;;;;;5031651;28;20033;-83
2021/10/11 09:41:02;;;;;;;6.65;5.57;;;15.80;71.10;;;;;;5014782;28;20041;-85
2021/10/11 09:43:29;;;;;;;6.90;6.05;;;15.80;71.20;;;;;;5019356;28;20388;-82
2021/10/11 09:45:56;;;;;;;5.90;5.47;;;15.90;72.10;;;;;;5013434;28;20040;-83
2021/10/11 09:48:22;;;;;;;5.85;5.35;;;15.90;71.30;;;;;;5031773;28;20033;-83
2021/10/11 09:50:48;;;;;;;6.60;6.10;;;15.90;71.30;;;;;;5032750;28;20037;-88
2021/10/11 09:53:16;;;;;;;5.35;5.05;;;15.90;71.40;;;;;;5015062;28;20038;-85
2021/10/11 09:55:44;;;;;;;6.63;5.97;;;15.90;71.40;;;;;;5032261;28;20026;-85
2021/10/11 09:58:11;;;;;;;6.82;6.05;;;15.90;71.40;;;;;;5016439;28;20049;-91
2021/10/11 10:00:41;;;;;;;8.45;5.55;;;15.90;71.40;;;;;;5031971;28;20042;-85
2021/10/11 10:03:09;;;;;;;6.97;6.18;;;16.00;71.60;;;;;;5048916;28;20033;-88
2021/10/11 10:05:41;;;;;;;6.18;5.68;;;16.00;71.60;;;;;;5012032;28;20041;-83
2021/10/11 10:08:20;;;;;;;9.00;6.30;;;16.00;71.70;;;;;;5007242;28;20040;-83
2021/10/11 10:10:48;;;;;;;7.15;6.45;;;16.00;71.60;;;;;;5016512;28;20040;-84
2021/10/11 10:13:18;;;;;;;4.95;4.65;;;16.10;71.70;;;;;;5016126;28;20502;-93
2021/10/11 10:15:45;;;;;;;6.57;6.07;;;16.10;71.70;;;;;;5027232;28;20034;-86
2021/10/11 10:18:13;;;;;;;5.53;5.13;;;16.10;71.70;;;;;;5030803;28;20044;-88
2021/10/11 10:20:56;;;;;;;6.10;5.60;;;16.10;71.70;;;;;;4998690;28;20045;-85
2021/10/11 10:23:33;;;;;;;5.63;5.22;;;16.10;71.70;;;;;;5026289;28;20034;-85
2021/10/11 10:26:01;;;;;;;6.28;5.75;;;16.20;71.80;;;;;;5031470;28;20495;-81
2021/10/11 10:28:50;;;;;;;16.55;6.38;;;16.30;71.70;;;;;;5025271;28;20030;-85
2021/10/11 10:31:29;;;;;;;6.72;6.22;;;16.30;71.50;;;;;;5032431;28;20388;-83
2021/10/11 10:33:56;;;;;;;7.32;6.72;;;16.40;71.50;;;;;;5031180;28;20049;-84
2021/10/11 10:36:26;;;;;;;6.65;6.05;;;16.40;71.40;;;;;;5031523;28;20357;-87
2021/10/11 10:39:03;;;;;;;8.00;6.50;;;16.50;71.40;;;;;;5014429;28;20063;-88
2021/10/11 10:41:30;;;;;;;9.88;6.25;;;16.50;71.40;;;;;;5028536;28;20040;-85
2021/10/11 10:43:56;;;;;;;6.57;6.05;;;16.60;71.40;;;;;;5014386;28;20032;-84
2021/10/11 10:46:22;;;;;;;8.02;7.30;;;16.70;71.30;;;;;;5014092;28;20026;-88
2021/10/11 10:48:52;;;;;;;7.70;7.07;;;16.80;71.10;;;;;;5020391;28;20041;-86
2021/10/11 10:51:19;;;;;;;7.88;7.35;;;17.00;70.90;;;;;;5014444;28;20040;-87
2021/10/11 10:53:53;;;;;;;8.15;7.63;;;17.10;70.60;;;;;;5014446;28;20064;-88
2021/10/11 10:56:20;;;;;;;10.20;8.05;;;17.20;70.50;;;;;;5028330;28;20037;-87
2021/10/11 10:58:47;;;;;;;6.90;6.38;;;17.30;70.20;;;;;;5029310;28;20045;-84
2021/10/11 11:01:13;;;;;;;7.13;6.72;;;17.50;70.10;;;;;;5030560;28;20040;-85
2021/10/11 11:03:39;;;;;;;8.50;7.75;;;17.60;69.90;;;;;;5031052;28;20025;-85
2021/10/11 11:06:06;;;;;;;7.00;5.95;;;17.60;69.80;;;;;;5030421;28;20036;-86
2021/10/11 11:08:33;;;;;;;7.00;6.40;;;17.70;69.60;;;;;;5014091;28;20042;-85
2021/10/11 11:10:59;;;;;;;6.72;6.07;;;17.80;69.50;;;;;;5029189;28;20408;-88
2021/10/11 11:13:25;;;;;;;6.50;5.85;;;17.90;69.50;;;;;;5030244;28;20030;-87
2021/10/11 11:15:52;;;;;;;6.07;5.68;;;17.90;69.50;;;;;;5013266;28;20044;-86
2021/10/11 11:18:24;;;;;;;5.75;5.35;;;18.00;69.30;;;;;;5029269;28;20033;-85
2021/10/11 11:20:50;;;;;;;7.05;6.40;;;18.10;69.10;;;;;;5030693;28;20040;-86
2021/10/11 11:23:22;;;;;;;7.05;6.55;;;18.20;68.80;;;;;;5013409;28;20025;-86
2021/10/11 11:25:55;;;;;;;6.88;6.45;;;18.20;68.70;;;;;;5031814;28;20025;-85
2021/10/11 11:28:27;;;;;;;9.75;6.53;;;18.20;68.70;;;;;;5005288;28;20045;-85
2021/10/11 11:30:55;;;;;;;8.27;7.50;;;18.20;68.60;;;;;;5029460;28;20038;-82
2021/10/11 11:33:25;;;;;;;6.18;5.65;;;18.20;68.60;;;;;;5029556;28;20045;-84
2021/10/11 11:35:53;;;;;;;8.82;7.63;;;18.20;68.60;;;;;;4995374;28;20559;-87
2021/10/11 11:38:21;;;;;;;8.38;7.78;;;18.20;68.60;;;;;;5024085;28;20021;-90
2021/10/11 11:40:50;;;;;;;7.22;6.82;;;18.20;68.40;;;;;;5014111;28;20029;-90
2021/10/11 11:43:16;;;;;;;7.95;7.38;;;18.30;68.40;;;;;;4996520;28;20036;-91
2021/10/11 11:45:43;;;;;;;6.82;6.43;;;18.30;68.20;;;;;;5013196;28;20049;-90
2021/10/11 11:48:19;;;;;;;7.43;7.03;;;18.40;68.10;;;;;;5037416;28;20045;-89
2021/10/11 11:50:47;;;;;;;18.80;6.82;;;18.50;68.00;;;;;;5029269;28;20515;-85
2021/10/11 11:53:15;;;;;;;6.40;6.10;;;18.50;67.70;;;;;;5030167;28;20037;-88
2021/10/11 11:55:43;;;;;;;6.90;6.43;;;18.50;67.70;;;;;;5011923;28;20029;-84
2021/10/11 11:58:15;;;;;;;6.72;6.13;;;18.50;67.50;;;;;;5001103;28;20400;-88
2021/10/11 12:00:48;;;;;;;6.65;6.30;;;18.60;67.40;;;;;;5009949;28;20045;-92
2021/10/11 12:03:19;;;;;;;6.25;5.85;;;18.60;67.00;;;;;;5014381;28;20056;-85
2021/10/11 12:05:49;;;;;;;7.15;6.75;;;18.60;66.80;;;;;;5013361;28;20041;-92
2021/10/11 12:08:15;;;;;;;6.57;6.28;;;18.80;66.70;;;;;;5008999;28;20026;-86
2021/10/11 12:10:42;;;;;;;7.07;6.78;;;18.80;66.40;;;;;;5001836;28;20033;-84
2021/10/11 12:13:08;;;;;;;6.47;6.18;;;18.80;66.30;;;;;;5031206;28;20045;-87
2021/10/11 12:15:34;;;;;;;6.18;5.88;;;18.80;66.10;;;;;;5029137;28;20041;-90
2021/10/11 12:18:04;;;;;;;7.53;7.07;;;18.70;65.90;;;;;;5007380;28;20026;-90
2021/10/11 12:20:50;;;;;;;7.82;7.35;;;18.70;65.90;;;;;;5025367;28;20029;-86
2021/10/11 12:23:17;;;;;;;6.82;6.53;;;18.60;65.60;;;;;;5028669;28;20041;-88
2021/10/11 12:25:43;;;;;;;6.97;6.68;;;18.60;65.60;;;;;;5007928;28;20042;-89
2021/10/11 12:28:19;;;;;;;7.15;6.65;;;18.60;65.40;;;;;;4997011;28;20045;-88
2021/10/11 12:30:48;;;;;;;6.75;6.45;;;18.80;65.10;;;;;;5025331;28;20045;-87
2021/10/11 12:33:18;;;;;;;9.25;7.07;;;18.80;64.80;;;;;;5030971;28;20053;-85
2021/10/11 12:36:00;;;;;;;7.72;7.07;;;18.90;64.50;;;;;;5029738;28;20036;-85
2021/10/11 12:38:35;;;;;;;7.82;7.28;;;18.90;64.00;;;;;;5029878;28;20021;-83
2021/10/11 12:41:11;;;;;;;6.95;6.65;;;18.90;63.70;;;;;;5033099;28;20026;-85
2021/10/11 12:43:38;;;;;;;17.33;16.48;;;18.80;63.40;;;;;;5033307;28;20036;-83
2021/10/11 12:46:07;;;;;;;6.57;6.28;;;18.90;63.60;;;;;;5032110;28;20045;-90